Time;durP1;ratioP1;P1;durP2;ratioP2;P2;SDS_P1;SDS_P2;PMS_P1;PMS_P2;Temp;Humidity;BMP_temperature;BMP_pressure;BME280_temperature;BME280_humidity;BME280_pressure;Samples;Min_cycle;Max_cycle;Signal;HPM_P1;HPM_P2
2022/10/19 00:01:06;;;;;;;8.77;2.28;;;9.70;99.90;;;;;;4980042;28;20047;-77
2022/10/19 00:03:33;;;;;;;;;;;9.90;99.90;;;;;;4969535;28;20062;-76
2022/10/19 00:05:59;;;;;;;5.07;1.08;;;9.60;99.90;;;;;;4967183;28;20020;-77
2022/10/19 00:08:25;;;;;;;6.70;1.23;;;9.60;99.90;;;;;;4966769;28;20105;-77
2022/10/19 00:10:51;;;;;;;4.47;1.83;;;9.70;99.90;;;;;;4963811;28;20498;-76
2022/10/19 00:13:17;;;;;;;4.65;1.17;;;9.60;99.90;;;;;;4965674;28;20394;-76
2022/10/19 00:15:44;;;;;;;6.25;1.20;;;9.50;99.90;;;;;;4964830;28;20437;-75
2022/10/19 00:18:10;;;;;;;5.50;1.40;;;9.70;99.90;;;;;;4965852;28;20283;-76
2022/10/19 00:20:36;;;;;;;8.98;1.50;;;9.80;99.90;;;;;;4964028;28;20038;-77
2022/10/19 00:23:02;;;;;;;3.47;1.33;;;9.80;99.90;;;;;;4967372;28;20500;-76
2022/10/19 00:25:28;;;;;;;5.30;0.95;;;9.80;99.90;;;;;;4963457;28;20086;-75
2022/10/19 00:27:54;;;;;;;6.05;1.80;;;9.70;99.90;;;;;;4952678;28;20078;-75
2022/10/19 00:30:19;;;;;;;5.78;1.52;;;9.90;99.90;;;;;;4965422;28;20458;-76
2022/10/19 00:32:45;;;;;;;4.38;1.20;;;9.90;99.90;;;;;;4966313;28;20564;-76
2022/10/19 00:35:11;;;;;;;6.93;2.83;;;9.90;99.90;;;;;;4965111;28;20050;-76
2022/10/19 00:37:37;;;;;;;4.55;1.42;;;10.00;99.90;;;;;;4968571;28;20042;-76
2022/10/19 00:40:03;;;;;;;5.05;1.20;;;9.90;99.90;;;;;;4965924;28;20082;-76
2022/10/19 00:42:29;;;;;;;2.95;1.38;;;9.90;99.90;;;;;;4967456;28;20057;-76
2022/10/19 00:45:01;;;;;;;2.75;0.80;;;10.00;99.90;;;;;;4964486;28;20039;-74
2022/10/19 00:47:27;;;;;;;11.02;1.67;;;10.00;99.90;;;;;;4964583;28;20093;-77
2022/10/19 00:49:53;;;;;;;3.92;1.42;;;10.00;99.90;;;;;;4957963;28;20442;-76
2022/10/19 00:52:22;;;;;;;7.30;1.58;;;9.90;99.90;;;;;;4966757;28;20090;-76
2022/10/19 00:54:50;;;;;;;4.40;1.42;;;9.70;99.90;;;;;;4961526;28;20042;-75
2022/10/19 00:57:16;;;;;;;11.35;2.22;;;9.80;99.90;;;;;;4978692;28;20055;-76
2022/10/19 00:59:44;;;;;;;6.70;2.22;;;9.80;99.90;;;;;;4964565;28;20042;-75
2022/10/19 01:02:10;;;;;;;9.05;1.27;;;10.10;99.90;;;;;;4963749;28;20045;-75
2022/10/19 01:04:40;;;;;;;8.02;1.13;;;10.10;99.90;;;;;;4966638;28;20074;-75
2022/10/19 01:07:06;;;;;;;;;;;10.20;99.90;;;;;;4967760;28;20119;-76
2022/10/19 01:09:33;;;;;;;6.63;1.52;;;10.20;99.90;;;;;;4962574;28;19925;-76
2022/10/19 01:12:26;;;;;;;9.60;2.00;;;10.00;99.90;;;;;;4965995;28;20051;-77
2022/10/19 01:15:09;;;;;;;11.77;2.33;;;10.10;99.90;;;;;;4949267;28;20101;-75
2022/10/19 01:17:58;;;;;;;8.77;2.97;;;10.20;99.90;;;;;;4963125;28;20042;-76
2022/10/19 01:20:32;;;;;;;6.88;2.42;;;10.40;99.90;;;;;;4963038;28;20061;-76
2022/10/19 01:23:31;;;;;;;4.50;1.23;;;10.00;99.90;;;;;;4962083;28;20535;-75
2022/10/19 01:26:25;;;;;;;9.48;1.85;;;10.00;99.90;;;;;;4960663;28;20050;-77
2022/10/19 01:29:15;;;;;;;12.75;2.13;;;10.30;99.90;;;;;;4957150;28;20089;-76
2022/10/19 01:32:00;;;;;;;;;;;10.30;99.90;;;;;;4963124;28;20039;-75
2022/10/19 01:34:59;;;;;;;7.50;2.88;;;10.20;99.90;;;;;;4958550;28;20005;-75
2022/10/19 01:37:56;;;;;;;6.30;1.60;;;10.20;99.90;;;;;;4958711;28;20485;-75
2022/10/19 01:40:42;;;;;;;10.95;2.33;;;10.40;99.90;;;;;;4949450;28;20063;-76
2022/10/19 01:43:20;;;;;;;5.28;1.50;;;10.30;99.90;;;;;;4937467;28;20397;-77
2022/10/19 01:45:58;;;;;;;15.60;2.17;;;10.20;99.90;;;;;;4961215;28;20047;-76
2022/10/19 01:48:35;;;;;;;7.93;2.13;;;10.40;99.90;;;;;;4957975;28;20047;-76
2022/10/19 01:51:06;;;;;;;6.13;1.50;;;10.50;99.90;;;;;;4956391;28;20046;-76
2022/10/19 01:53:37;;;;;;;5.20;1.50;;;10.30;99.90;;;;;;4956975;28;20054;-76
2022/10/19 01:56:04;;;;;;;9.98;1.98;;;10.40;99.90;;;;;;4966200;28;20046;-75
2022/10/19 01:58:34;;;;;;;8.23;2.10;;;10.60;99.90;;;;;;4955547;28;20039;-76
2022/10/19 02:01:04;;;;;;;4.28;2.28;;;10.60;99.90;;;;;;4962157;28;20058;-76
2022/10/19 02:03:32;;;;;;;5.60;1.33;;;10.60;99.90;;;;;;4965093;28;20053;-75
2022/10/19 02:05:59;;;;;;;5.47;1.50;;;10.40;99.90;;;;;;4959206;28;20034;-75
2022/10/19 02:08:35;;;;;;;6.03;2.60;;;10.50;99.90;;;;;;4966414;28;20059;-76
2022/10/19 02:11:02;;;;;;;7.90;1.65;;;10.60;99.90;;;;;;4965899;28;20072;-75
2022/10/19 02:13:29;;;;;;;7.88;2.40;;;10.60;99.90;;;;;;4962483;28;20125;-76
2022/10/19 02:15:58;;;;;;;2.33;1.40;;;10.60;99.90;;;;;;4965586;28;20039;-76
2022/10/19 02:18:30;;;;;;;4.18;1.52;;;10.50;99.90;;;;;;4966142;28;20039;-76
2022/10/19 02:20:57;;;;;;;20.33;3.47;;;10.50;99.90;;;;;;4966582;28;20113;-77
2022/10/19 02:23:26;;;;;;;10.85;2.58;;;10.30;99.90;;;;;;4961999;28;20047;-76
2022/10/19 02:25:52;;;;;;;9.07;1.42;;;10.50;99.90;;;;;;4964421;28;20125;-76
2022/10/19 02:28:19;;;;;;;7.57;1.48;;;10.30;99.90;;;;;;4965987;28;20050;-76
2022/10/19 02:30:44;;;;;;;14.57;2.53;;;10.40;99.90;;;;;;4963615;28;20038;-77
2022/10/19 02:33:11;;;;;;;6.60;1.05;;;10.50;99.90;;;;;;4966903;28;20062;-77
2022/10/19 02:35:37;;;;;;;6.75;1.70;;;10.50;99.90;;;;;;4964621;28;20047;-77
2022/10/19 02:38:04;;;;;;;4.72;1.40;;;10.60;99.90;;;;;;4959237;28;20445;-75
2022/10/19 02:40:35;;;;;;;7.63;1.85;;;10.70;99.90;;;;;;4960764;28;20102;-77
2022/10/19 02:43:05;;;;;;;18.67;3.00;;;10.70;99.90;;;;;;4968445;28;20086;-76
2022/10/19 02:45:36;;;;;;;13.35;1.85;;;10.60;99.90;;;;;;4963905;28;20065;-76
2022/10/19 02:48:06;;;;;;;4.97;1.80;;;10.70;99.90;;;;;;4965158;28;20417;-76
2022/10/19 02:50:32;;;;;;;7.28;1.38;;;10.70;99.90;;;;;;4965865;28;20178;-77
2022/10/19 02:52:58;;;;;;;8.45;1.33;;;10.70;99.90;;;;;;4965032;28;20114;-76
2022/10/19 02:55:24;;;;;;;11.45;2.80;;;10.60;99.90;;;;;;4958096;28;20050;-77
2022/10/19 02:57:50;;;;;;;7.45;1.30;;;10.60;99.90;;;;;;4966554;28;20413;-77
2022/10/19 03:00:15;;;;;;;6.45;1.67;;;10.50;99.90;;;;;;4959648;28;20415;-76
2022/10/19 03:02:41;;;;;;;10.35;1.70;;;10.50;99.90;;;;;;4962021;28;20073;-77
2022/10/19 03:05:08;;;;;;;12.02;1.58;;;10.70;99.90;;;;;;4965919;28;20538;-76
2022/10/19 03:07:33;;;;;;;8.85;1.10;;;10.60;99.90;;;;;;4965498;28;20402;-76
2022/10/19 03:09:59;;;;;;;8.00;1.48;;;10.60;99.90;;;;;;4965064;28;20039;-76
2022/10/19 03:12:25;;;;;;;7.80;1.23;;;10.70;99.90;;;;;;4957013;28;20058;-77
2022/10/19 03:14:50;;;;;;;6.40;1.80;;;10.70;99.90;;;;;;4961783;28;20264;-76
2022/10/19 03:17:16;;;;;;;7.80;1.85;;;10.50;99.90;;;;;;4960848;28;20047;-76
2022/10/19 03:19:42;;;;;;;9.15;3.05;;;10.50;99.90;;;;;;4952061;28;20140;-76
2022/10/19 03:22:08;;;;;;;8.15;1.67;;;10.60;99.90;;;;;;4966319;28;20054;-75
2022/10/19 03:24:33;;;;;;;5.90;1.73;;;10.50;99.90;;;;;;4961533;28;20035;-76
2022/10/19 03:26:59;;;;;;;5.82;2.83;;;10.60;99.90;;;;;;4966481;28;20039;-77
2022/10/19 03:29:24;;;;;;;6.00;1.65;;;10.30;99.90;;;;;;4969956;28;20047;-76
2022/10/19 03:31:50;;;;;;;8.25;1.17;;;10.50;99.90;;;;;;4966243;28;20101;-74
2022/10/19 03:34:16;;;;;;;6.43;2.15;;;10.40;99.90;;;;;;4969059;28;20405;-76
2022/10/19 03:36:42;;;;;;;7.15;2.17;;;10.40;99.90;;;;;;4970471;28;20050;-75
2022/10/19 03:39:12;;;;;;;7.95;2.00;;;10.10;99.90;;;;;;4968436;28;20398;-76
2022/10/19 03:41:38;;;;;;;11.45;2.72;;;10.30;99.90;;;;;;4966637;28;20152;-76
2022/10/19 03:44:05;;;;;;;4.07;1.73;;;10.10;99.90;;;;;;4967979;28;20039;-75
2022/10/19 03:46:32;;;;;;;6.72;2.22;;;10.00;99.90;;;;;;4960074;28;21093;-76
2022/10/19 03:48:58;;;;;;;9.18;1.98;;;10.00;99.90;;;;;;4959768;28;20036;-76
2022/10/19 03:51:26;;;;;;;5.63;1.48;;;10.20;99.90;;;;;;4966958;28;20510;-74
2022/10/19 03:53:53;;;;;;;13.57;2.67;;;10.00;99.90;;;;;;4973333;28;20042;-76
2022/10/19 03:56:20;;;;;;;7.70;1.90;;;10.00;99.90;;;;;;4971741;28;20046;-75
2022/10/19 03:58:48;;;;;;;9.98;2.38;;;10.20;99.90;;;;;;4975822;28;20043;-75
2022/10/19 04:01:25;;;;;;;10.85;2.85;;;10.10;99.90;;;;;;4975423;28;20051;-76
2022/10/19 04:04:03;;;;;;;8.05;1.38;;;10.10;99.90;;;;;;4974316;28;20039;-75
2022/10/19 04:06:38;;;;;;;7.80;1.85;;;9.80;99.90;;;;;;4969532;28;20042;-75
2022/10/19 04:09:05;;;;;;;7.97;2.03;;;10.10;99.90;;;;;;4969143;28;20398;-75
2022/10/19 04:11:32;;;;;;;5.13;1.90;;;10.10;99.90;;;;;;4975299;28;20471;-76
2022/10/19 04:13:59;;;;;;;8.88;2.88;;;9.90;99.90;;;;;;4952210;28;20376;-75
2022/10/19 04:16:26;;;;;;;8.63;1.95;;;10.00;99.90;;;;;;4965296;28;20042;-75
2022/10/19 04:18:52;;;;;;;6.55;1.73;;;9.90;99.90;;;;;;4961889;28;20054;-75
2022/10/19 04:21:26;;;;;;;8.02;1.63;;;9.90;99.90;;;;;;4964123;28;20043;-76
2022/10/19 04:23:56;;;;;;;11.93;1.48;;;10.10;99.90;;;;;;4960481;28;20046;-75
2022/10/19 04:26:22;;;;;;;6.03;1.30;;;9.90;99.90;;;;;;4963671;28;20047;-75
2022/10/19 04:28:47;;;;;;;8.65;2.15;;;10.10;99.90;;;;;;4967067;28;20038;-75
2022/10/19 04:31:13;;;;;;;11.70;1.95;;;10.00;99.90;;;;;;4959397;28;20043;-76
2022/10/19 04:33:39;;;;;;;9.38;1.63;;;10.10;99.90;;;;;;4961351;28;20042;-75
2022/10/19 04:36:07;;;;;;;9.50;1.30;;;10.00;99.90;;;;;;4967058;28;20574;-75
2022/10/19 04:38:33;;;;;;;4.97;2.08;;;10.10;99.90;;;;;;4968184;28;20063;-75
2022/10/19 04:41:10;;;;;;;8.63;2.15;;;10.10;99.90;;;;;;4967782;28;20039;-75
2022/10/19 04:43:37;;;;;;;14.60;2.78;;;10.10;99.90;;;;;;4966085;28;20394;-75
2022/10/19 04:46:07;;;;;;;8.23;1.92;;;10.00;99.90;;;;;;4967277;28;20043;-75
2022/10/19 04:48:35;;;;;;;14.95;2.15;;;10.20;99.90;;;;;;4961376;28;20043;-75
2022/10/19 04:51:00;;;;;;;5.60;1.85;;;10.10;99.90;;;;;;4964981;28;20105;-74
2022/10/19 04:53:26;;;;;;;7.95;2.05;;;10.00;99.90;;;;;;4966969;28;20058;-74
2022/10/19 04:55:52;;;;;;;11.25;2.60;;;10.00;99.90;;;;;;4966001;28;20042;-75
2022/10/19 04:58:18;;;;;;;10.85;2.50;;;9.90;99.90;;;;;;4969115;28;20038;-75
2022/10/19 05:00:43;;;;;;;8.27;1.38;;;10.10;99.90;;;;;;4963604;28;20046;-75
2022/10/19 05:03:09;;;;;;;11.57;2.20;;;10.00;99.90;;;;;;4967918;28;20050;-76
2022/10/19 05:05:35;;;;;;;7.28;1.77;;;9.90;99.90;;;;;;4966990;28;20054;-76
2022/10/19 05:08:00;;;;;;;8.98;2.35;;;9.80;99.90;;;;;;4968276;28;20375;-76
2022/10/19 05:10:26;;;;;;;10.88;2.50;;;9.80;99.90;;;;;;4964690;28;20043;-75
2022/10/19 05:12:52;;;;;;;14.48;1.67;;;10.00;99.90;;;;;;4962647;28;20047;-75
2022/10/19 05:15:18;;;;;;;9.63;1.20;;;9.90;99.90;;;;;;4962625;28;20447;-74
2022/10/19 05:17:43;;;;;;;12.27;2.60;;;10.00;99.90;;;;;;4970025;28;20445;-75
2022/10/19 05:20:12;;;;;;;10.40;1.55;;;10.00;99.90;;;;;;4968526;28;20101;-74
2022/10/19 05:22:38;;;;;;;9.25;2.20;;;10.00;99.90;;;;;;4968495;28;20050;-74
2022/10/19 05:25:05;;;;;;;16.65;3.30;;;10.00;99.90;;;;;;4962216;28;20045;-74
2022/10/19 05:27:31;;;;;;;19.15;3.28;;;9.90;99.90;;;;;;4955861;28;20038;-74
2022/10/19 05:29:57;;;;;;;14.57;2.55;;;9.90;99.90;;;;;;4966951;28;20051;-74
2022/10/19 05:32:22;;;;;;;12.52;2.80;;;10.00;99.90;;;;;;4965052;28;20332;-74
2022/10/19 05:34:48;;;;;;;10.38;1.65;;;9.90;99.90;;;;;;4966048;28;20149;-74
2022/10/19 05:37:15;;;;;;;16.48;2.85;;;10.00;99.90;;;;;;4967317;28;20509;-74
2022/10/19 05:39:41;;;;;;;7.32;3.13;;;10.00;99.90;;;;;;4948815;28;20062;-75
2022/10/19 05:42:07;;;;;;;15.25;2.17;;;9.90;99.90;;;;;;4965003;28;20406;-74
2022/10/19 05:44:33;;;;;;;14.80;1.88;;;10.00;99.90;;;;;;4962723;28;20430;-74
2022/10/19 05:46:59;;;;;;;11.07;1.80;;;10.00;99.90;;;;;;4958432;28;20042;-74
2022/10/19 05:49:25;;;;;;;9.65;1.60;;;10.00;99.90;;;;;;4965530;28;20054;-73
2022/10/19 05:51:51;;;;;;;7.45;1.65;;;9.90;99.90;;;;;;4964474;28;20049;-74
2022/10/19 05:54:17;;;;;;;15.60;2.28;;;9.80;99.90;;;;;;4965213;28;20397;-74
2022/10/19 05:56:44;;;;;;;15.07;1.73;;;10.10;99.90;;;;;;4968226;28;20043;-74
2022/10/19 05:59:14;;;;;;;8.30;2.08;;;9.90;99.90;;;;;;4955348;28;20398;-74
2022/10/19 06:01:39;;;;;;;6.20;2.42;;;10.00;99.90;;;;;;4967596;28;20061;-73
2022/10/19 06:04:06;;;;;;;22.20;3.55;;;10.00;99.90;;;;;;4966949;28;20121;-73
2022/10/19 06:06:32;;;;;;;16.70;2.20;;;9.90;99.90;;;;;;4966223;28;20046;-73
2022/10/19 06:08:59;;;;;;;18.25;3.08;;;10.10;99.90;;;;;;4969203;28;20046;-75
2022/10/19 06:11:27;;;;;;;11.32;2.55;;;10.10;99.90;;;;;;4967200;28;20046;-74
2022/10/19 06:13:55;;;;;;;6.50;2.40;;;10.10;99.90;;;;;;4966182;28;20126;-74
2022/10/19 06:16:23;;;;;;;15.38;2.38;;;10.10;99.90;;;;;;4962381;28;20057;-74
2022/10/19 06:18:48;;;;;;;13.38;2.60;;;10.10;99.90;;;;;;4967209;28;20514;-74
2022/10/19 06:21:20;;;;;;;17.88;2.10;;;10.30;99.90;;;;;;4966302;28;20130;-74
2022/10/19 06:23:51;;;;;;;11.63;1.58;;;10.20;99.90;;;;;;4950550;28;20074;-74
2022/10/19 06:26:17;;;;;;;11.73;1.70;;;10.30;99.90;;;;;;4964838;28;20058;-74
2022/10/19 06:28:44;;;;;;;11.98;1.80;;;10.40;99.90;;;;;;4966868;28;20043;-74
2022/10/19 06:31:11;;;;;;;11.73;1.40;;;10.30;99.90;;;;;;4966593;28;20074;-74
2022/10/19 06:33:39;;;;;;;13.23;3.10;;;10.30;99.90;;;;;;4962261;28;20043;-74
2022/10/19 06:36:05;;;;;;;12.43;2.17;;;10.30;99.90;;;;;;4967548;28;20105;-74
2022/10/19 06:38:31;;;;;;;14.10;1.60;;;10.30;99.90;;;;;;4965422;28;20050;-74
2022/10/19 06:41:00;;;;;;;13.15;2.72;;;10.40;99.90;;;;;;4968247;28;20034;-74
2022/10/19 06:43:26;;;;;;;9.30;1.88;;;10.30;99.90;;;;;;4965718;28;20122;-74
2022/10/19 06:45:52;;;;;;;5.85;1.27;;;10.30;99.90;;;;;;4960721;28;20047;-74
2022/10/19 06:48:17;;;;;;;8.13;1.33;;;10.30;99.90;;;;;;4963876;28;20114;-73
2022/10/19 06:50:43;;;;;;;11.15;2.05;;;10.40;99.90;;;;;;4965949;28;20082;-74
2022/10/19 06:53:10;;;;;;;12.68;3.17;;;10.40;99.90;;;;;;4965666;28;20134;-74
2022/10/19 06:55:35;;;;;;;24.10;7.43;;;10.40;99.90;;;;;;4965048;28;20078;-74
2022/10/19 06:58:01;;;;;;;28.70;2.47;;;10.50;99.90;;;;;;4952122;28;20801;-75
2022/10/19 07:00:28;;;;;;;9.52;1.60;;;10.50;99.90;;;;;;4968700;28;20045;-74
2022/10/19 07:02:54;;;;;;;13.50;1.50;;;10.50;99.90;;;;;;4953930;28;20043;-78
2022/10/19 07:05:20;;;;;;;10.13;1.35;;;10.50;99.90;;;;;;4966054;28;20563;-75
2022/10/19 07:07:45;;;;;;;16.42;2.03;;;10.60;99.90;;;;;;4971745;28;20114;-75
2022/10/19 07:10:11;;;;;;;7.05;1.15;;;10.50;99.90;;;;;;4972339;28;20127;-75
2022/10/19 07:12:37;;;;;;;7.60;1.50;;;10.70;99.90;;;;;;4959439;28;20568;-74
2022/10/19 07:15:03;;;;;;;10.95;2.03;;;10.70;99.90;;;;;;4968101;28;20059;-74
2022/10/19 07:17:29;;;;;;;7.13;0.98;;;10.70;99.90;;;;;;4953261;28;20074;-74
2022/10/19 07:19:55;;;;;;;13.82;3.08;;;10.80;99.90;;;;;;4968439;28;20067;-74
2022/10/19 07:22:20;;;;;;;18.85;3.10;;;10.80;99.90;;;;;;4971373;28;20390;-73
2022/10/19 07:24:46;;;;;;;6.50;3.05;;;10.70;99.90;;;;;;4968830;28;20039;-73
2022/10/19 07:27:12;;;;;;;15.60;1.40;;;10.80;99.90;;;;;;4967158;28;20049;-74
2022/10/19 07:29:38;;;;;;;11.93;2.08;;;10.80;99.90;;;;;;4952023;28;20414;-74
2022/10/19 07:32:03;;;;;;;7.93;1.33;;;10.90;99.90;;;;;;4971472;28;20050;-74
2022/10/19 07:34:29;;;;;;;8.20;1.70;;;10.90;99.90;;;;;;4970969;28;20051;-74
2022/10/19 07:36:55;;;;;;;14.80;1.60;;;10.90;99.90;;;;;;4963813;28;20057;-74
2022/10/19 07:39:20;;;;;;;7.13;1.52;;;10.90;99.90;;;;;;4966055;28;20054;-74
2022/10/19 07:41:46;;;;;;;13.30;3.22;;;11.00;99.90;;;;;;4965599;28;20434;-74
2022/10/19 07:44:13;;;;;;;16.00;2.33;;;11.00;99.90;;;;;;4964762;28;20058;-75
2022/10/19 07:46:39;;;;;;;9.35;1.60;;;11.00;99.90;;;;;;4965655;28;20058;-75
2022/10/19 07:49:08;;;;;;;7.68;1.77;;;11.00;99.90;;;;;;4963251;28;20053;-75
2022/10/19 07:51:36;;;;;;;7.63;2.22;;;11.10;99.90;;;;;;4959592;28;20443;-74
2022/10/19 07:54:02;;;;;;;6.20;0.80;;;11.10;99.90;;;;;;4960852;28;20043;-76
2022/10/19 07:56:28;;;;;;;18.13;2.42;;;11.10;99.90;;;;;;4963213;28;20038;-76
2022/10/19 07:58:56;;;;;;;11.25;2.05;;;11.10;99.90;;;;;;4963122;28;20479;-76
2022/10/19 08:01:28;;;;;;;7.45;1.67;;;11.20;99.90;;;;;;4964046;28;20054;-76
2022/10/19 08:03:55;;;;;;;11.35;1.20;;;11.20;99.90;;;;;;4971732;28;20089;-77
2022/10/19 08:06:23;;;;;;;9.15;2.38;;;11.20;99.90;;;;;;4969688;28;20043;-76
2022/10/19 08:08:49;;;;;;;7.72;1.48;;;11.30;99.90;;;;;;4970121;28;20096;-76
2022/10/19 08:11:21;;;;;;;9.57;2.13;;;11.40;99.90;;;;;;4965602;28;20090;-76
2022/10/19 08:13:47;;;;;;;9.57;1.90;;;11.40;99.90;;;;;;4961516;28;20105;-75
2022/10/19 08:16:40;;;;;;;4.35;0.82;;;11.40;99.90;;;;;;4958493;28;20083;-79
2022/10/19 08:19:08;;;;;;;11.10;1.58;;;11.50;99.90;;;;;;4967730;28;20062;-75
2022/10/19 08:21:35;;;;;;;10.02;1.67;;;11.50;99.90;;;;;;4969089;28;20057;-74
2022/10/19 08:24:01;;;;;;;10.70;2.65;;;11.70;99.90;;;;;;4965502;28;20471;-74
2022/10/19 08:26:32;;;;;;;14.02;2.38;;;11.70;99.90;;;;;;4970641;28;20039;-74
2022/10/19 08:29:15;;;;;;;7.57;1.60;;;11.70;99.90;;;;;;4966070;28;20035;-75
2022/10/19 08:31:42;;;;;;;16.90;1.65;;;11.70;99.90;;;;;;4964119;28;20055;-74
2022/10/19 08:34:08;;;;;;;11.80;2.97;;;11.70;99.90;;;;;;4971494;28;20054;-75
2022/10/19 08:36:34;;;;;;;11.85;1.38;;;11.70;99.90;;;;;;4966243;28;20047;-74
2022/10/19 08:39:02;;;;;;;7.75;1.38;;;11.80;99.90;;;;;;4966960;28;20046;-74
2022/10/19 08:41:53;;;;;;;9.00;1.30;;;11.90;99.90;;;;;;4968576;28;20061;-75
2022/10/19 08:44:43;;;;;;;7.10;1.17;;;11.90;99.90;;;;;;4962648;28;20055;-73
2022/10/19 08:47:43;;;;;;;7.53;0.80;;;11.90;99.90;;;;;;4965187;28;20062;-75
2022/10/19 08:50:30;;;;;;;6.53;1.00;;;12.00;99.90;;;;;;4970323;28;20086;-75
2022/10/19 08:53:11;;;;;;;8.27;1.85;;;12.00;99.90;;;;;;4969594;28;20069;-73
2022/10/19 08:56:13;;;;;;;11.02;1.98;;;12.00;99.90;;;;;;4953319;28;20050;-73
2022/10/19 08:58:58;;;;;;;10.90;1.00;;;12.00;99.90;;;;;;4963879;28;20055;-73
2022/10/19 09:01:38;;;;;;;9.10;2.05;;;12.10;99.90;;;;;;4964040;28;20074;-74
2022/10/19 09:04:04;;;;;;;14.07;1.10;;;12.10;99.90;;;;;;4967374;28;20050;-73
2022/10/19 09:06:36;;;;;;;4.57;1.40;;;12.10;99.90;;;;;;4967169;28;20101;-73
2022/10/19 09:09:02;;;;;;;14.80;2.20;;;12.00;99.90;;;;;;4966786;28;20832;-72
2022/10/19 09:11:33;;;;;;;8.23;1.15;;;12.20;99.90;;;;;;4950683;28;20055;-74
2022/10/19 09:14:21;;;;;;;7.78;2.13;;;12.30;99.90;;;;;;4961826;28;20051;-74
2022/10/19 09:16:46;;;;;;;5.00;1.35;;;12.30;99.90;;;;;;4955488;28;20051;-73
2022/10/19 09:19:21;;;;;;;14.32;2.63;;;12.30;99.90;;;;;;4962415;28;20459;-73
2022/10/19 09:21:55;;;;;;;8.25;2.20;;;12.50;99.90;;;;;;4967149;28;20069;-74
2022/10/19 09:24:48;;;;;;;9.02;1.92;;;12.50;99.90;;;;;;4966670;28;20051;-76
2022/10/19 09:27:38;;;;;;;10.90;2.58;;;12.30;99.90;;;;;;4967902;28;20417;-76
2022/10/19 09:30:12;;;;;;;15.55;2.03;;;12.20;99.90;;;;;;4962229;28;20058;-76
2022/10/19 09:32:38;;;;;;;3.53;1.55;;;12.40;99.90;;;;;;4970331;28;20050;-76
2022/10/19 09:35:23;;;;;;;7.38;2.05;;;12.20;99.90;;;;;;4960444;28;20051;-77
2022/10/19 09:37:50;;;;;;;14.52;2.95;;;12.40;99.90;;;;;;4963487;28;20074;-76
2022/10/19 09:40:27;;;;;;;4.85;1.60;;;12.40;99.90;;;;;;4966711;28;20448;-76
2022/10/19 09:42:57;;;;;;;10.10;1.75;;;12.40;99.90;;;;;;4965242;28;20051;-77
2022/10/19 09:45:41;;;;;;;6.03;1.27;;;12.40;99.90;;;;;;4944582;28;20039;-75
2022/10/19 09:48:35;;;;;;;8.40;1.40;;;12.30;99.90;;;;;;4969750;28;20078;-76
2022/10/19 09:51:09;;;;;;;8.60;1.02;;;12.30;99.90;;;;;;4969202;28;20058;-77
2022/10/19 09:53:35;;;;;;;9.32;2.33;;;12.40;99.90;;;;;;4954644;28;20047;-78
2022/10/19 09:56:07;;;;;;;7.13;2.00;;;12.40;99.90;;;;;;4963921;28;20386;-78
2022/10/19 09:58:34;;;;;;;8.68;1.85;;;12.40;99.90;;;;;;4966625;28;20051;-77
2022/10/19 10:01:01;;;;;;;15.20;2.10;;;12.30;99.90;;;;;;4967900;28;20093;-74
2022/10/19 10:03:28;;;;;;;7.55;1.80;;;12.40;99.90;;;;;;4968682;28;20069;-77
2022/10/19 10:06:06;;;;;;;8.68;1.10;;;12.50;99.90;;;;;;4965755;28;20410;-70
2022/10/19 10:08:58;;;;;;;9.93;1.00;;;12.50;99.90;;;;;;4964758;28;20078;-71
2022/10/19 10:11:32;;;;;;;7.18;1.65;;;12.70;99.90;;;;;;4970982;28;20055;-71
2022/10/19 10:14:03;;;;;;;8.18;1.92;;;12.70;99.90;;;;;;4965756;28;20623;-72
2022/10/19 10:16:31;;;;;;;13.95;1.58;;;12.70;99.90;;;;;;4964681;28;20054;-72
2022/10/19 10:19:00;;;;;;;8.13;1.90;;;12.70;99.90;;;;;;4963140;28;20043;-72
2022/10/19 10:21:33;;;;;;;10.55;1.98;;;12.60;99.90;;;;;;4965626;28;20057;-73
2022/10/19 10:24:00;;;;;;;11.60;2.08;;;12.50;99.90;;;;;;4966321;28;20050;-71
2022/10/19 10:26:26;;;;;;;7.15;1.40;;;12.50;99.90;;;;;;4962101;28;20125;-71
2022/10/19 10:28:52;;;;;;;7.25;1.38;;;12.40;99.90;;;;;;4964033;28;20047;-75
2022/10/19 10:31:22;;;;;;;8.88;1.95;;;12.60;99.90;;;;;;4977175;28;20049;-73
2022/10/19 10:34:02;;;;;;;7.07;1.10;;;12.60;99.90;;;;;;4959596;28;20070;-78
2022/10/19 10:36:30;;;;;;;10.70;2.47;;;12.70;99.90;;;;;;4969677;28;20042;-78
2022/10/19 10:39:06;;;;;;;9.88;1.70;;;12.80;99.90;;;;;;4966794;28;20182;-73
2022/10/19 10:41:38;;;;;;;4.47;0.77;;;12.60;99.90;;;;;;4971773;28;20101;-79
2022/10/19 10:44:19;;;;;;;9.95;1.58;;;12.90;99.90;;;;;;4971550;28;20054;-79
2022/10/19 10:46:57;;;;;;;11.73;1.73;;;12.90;99.90;;;;;;4972112;28;20047;-78
2022/10/19 10:49:29;;;;;;;7.15;1.42;;;12.80;99.90;;;;;;4970579;28;20047;-77
2022/10/19 10:52:04;;;;;;;6.03;1.83;;;12.80;99.90;;;;;;4971659;28;20038;-78
2022/10/19 10:54:31;;;;;;;5.75;1.38;;;12.90;99.90;;;;;;4942143;28;20050;-77
2022/10/19 10:57:12;;;;;;;8.82;1.67;;;12.70;99.90;;;;;;4972614;28;20046;-78
2022/10/19 10:59:45;;;;;;;6.90;0.90;;;12.70;99.90;;;;;;4972564;28;20124;-77
2022/10/19 11:02:34;;;;;;;13.52;1.95;;;12.80;99.90;;;;;;4963837;28;20114;-80
2022/10/19 11:05:10;;;;;;;9.05;1.13;;;12.80;99.90;;;;;;4961066;28;20189;-74
2022/10/19 11:07:41;;;;;;;6.97;1.15;;;13.00;99.90;;;;;;4971994;28;20083;-78
2022/10/19 11:10:21;;;;;;;13.27;1.55;;;13.50;99.90;;;;;;4970808;28;20045;-74
2022/10/19 11:13:11;;;;;;;6.28;1.27;;;13.60;99.90;;;;;;4971210;28;20118;-76
2022/10/19 11:15:54;;;;;;;9.45;1.50;;;13.30;99.90;;;;;;4967363;28;20078;-75
2022/10/19 11:18:28;;;;;;;8.95;1.25;;;13.20;99.90;;;;;;4939791;29;20050;-77
2022/10/19 11:21:14;;;;;;;5.13;0.75;;;13.30;99.90;;;;;;4971796;28;20050;-78
2022/10/19 11:24:04;;;;;;;11.85;1.27;;;13.60;99.90;;;;;;4954937;28;20053;-78
2022/10/19 11:26:38;;;;;;;13.35;2.83;;;13.60;99.90;;;;;;4968114;28;20047;-75
2022/10/19 11:29:23;;;;;;;9.35;1.63;;;13.60;99.90;;;;;;4954550;28;20450;-80
2022/10/19 11:31:52;;;;;;;5.90;1.27;;;13.60;99.90;;;;;;4970923;28;20105;-78
2022/10/19 11:34:35;;;;;;;4.03;0.70;;;13.40;99.90;;;;;;4969633;28;20097;-78
2022/10/19 11:37:24;;;;;;;6.53;1.25;;;13.20;99.90;;;;;;4970825;28;20061;-77
2022/10/19 11:40:28;;;;;;;7.72;1.50;;;13.00;99.90;;;;;;4968262;28;20108;-79
2022/10/19 11:42:59;;;;;;;10.40;1.30;;;13.00;99.90;;;;;;4970944;28;20035;-78
2022/10/19 11:45:45;;;;;;;6.30;1.77;;;12.90;99.90;;;;;;4969120;28;20185;-77
2022/10/19 11:48:41;;;;;;;7.30;1.80;;;12.80;99.90;;;;;;4971163;28;20043;-76
2022/10/19 11:51:20;;;;;;;9.20;2.05;;;13.00;99.90;;;;;;4975750;28;20055;-75
2022/10/19 11:54:22;;;;;;;8.88;2.05;;;13.20;99.90;;;;;;4967699;28;20042;-78
2022/10/19 11:56:59;;;;;;;13.68;2.28;;;13.20;99.90;;;;;;4945062;29;20047;-78
2022/10/19 11:59:40;;;;;;;8.90;1.10;;;13.50;99.90;;;;;;4970089;28;20035;-78
2022/10/19 12:02:44;;;;;;;8.68;1.83;;;13.70;99.90;;;;;;4976774;28;20051;-77
2022/10/19 12:05:30;;;;;;;20.52;1.63;;;13.70;99.90;;;;;;4980507;28;20050;-78
2022/10/19 12:08:39;;;;;;;5.10;1.85;;;13.60;99.90;;;;;;4965580;28;20039;-77
2022/10/19 12:11:08;;;;;;;11.90;1.83;;;13.70;99.90;;;;;;4938132;28;20055;-79
2022/10/19 12:13:47;;;;;;;4.85;1.17;;;13.70;99.90;;;;;;4935787;28;20053;-75
2022/10/19 12:16:13;;;;;;;12.10;2.80;;;13.70;99.90;;;;;;4961728;28;20449;-78
2022/10/19 12:18:43;;;;;;;7.88;1.63;;;13.60;99.90;;;;;;4973641;28;20059;-78
2022/10/19 12:21:29;;;;;;;4.15;1.05;;;13.60;99.90;;;;;;4968116;28;20050;-78
2022/10/19 12:23:57;;;;;;;7.85;1.10;;;13.30;99.90;;;;;;4962548;28;20034;-74
2022/10/19 12:26:24;;;;;;;3.67;1.27;;;13.40;99.90;;;;;;4969609;28;20047;-78
2022/10/19 12:28:56;;;;;;;6.22;1.20;;;13.40;99.90;;;;;;4970941;28;20047;-77
2022/10/19 12:31:25;;;;;;;5.97;1.58;;;13.40;99.90;;;;;;4970303;28;20043;-77
2022/10/19 12:34:05;;;;;;;8.00;1.20;;;13.30;99.90;;;;;;4967455;28;20082;-78
2022/10/19 12:36:57;;;;;;;7.30;1.42;;;13.20;99.90;;;;;;4960913;28;20090;-75
2022/10/19 12:39:38;;;;;;;8.13;3.40;;;13.20;99.90;;;;;;4962675;28;20186;-77
2022/10/19 12:42:36;;;;;;;7.05;0.70;;;13.20;99.90;;;;;;4974779;28;20046;-79
2022/10/19 12:45:13;;;;;;;5.07;0.85;;;13.50;99.90;;;;;;4968117;28;20903;-79
2022/10/19 12:47:39;;;;;;;5.22;0.93;;;13.50;99.90;;;;;;4970545;28;20438;-75
2022/10/19 12:50:06;;;;;;;10.60;1.77;;;13.70;99.90;;;;;;4968880;28;20090;-79
2022/10/19 12:52:41;;;;;;;9.63;1.40;;;13.90;99.90;;;;;;4968827;28;20049;-79
2022/10/19 12:55:12;;;;;;;5.85;1.85;;;14.10;99.90;;;;;;4965001;28;20055;-75
2022/10/19 12:57:39;;;;;;;4.13;1.15;;;14.20;99.90;;;;;;4958756;28;20047;-79
2022/10/19 13:00:21;;;;;;;4.35;1.25;;;14.10;99.90;;;;;;4955984;28;20054;-76
2022/10/19 13:03:03;;;;;;;8.65;1.10;;;14.10;99.90;;;;;;4975303;28;20425;-79
2022/10/19 13:05:30;;;;;;;8.10;1.77;;;13.50;99.90;;;;;;4964269;28;20035;-78
2022/10/19 13:07:59;;;;;;;9.10;1.83;;;13.30;99.90;;;;;;4956580;28;20043;-76